Time;durP1;ratioP1;P1;durP2;ratioP2;P2;SDS_P1;SDS_P2;PMS_P1;PMS_P2;Temp;Humidity;BMP_temperature;BMP_pressure;BME280_temperature;BME280_humidity;BME280_pressure;Samples;Min_cycle;Max_cycle;Signal;HPM_P1;HPM_P2
2022/07/01 09:20:49;;;;;;;14.90;7.10;;;;;;;27.63;44.02;100532.27;107132;1284;72657;-89
2022/07/01 11:51:45;;;;;;;108.10;12.70;;;;;;;28.35;40.22;100439.48;106971;1284;83692;-92
2022/07/01 12:52:41;;;;;;;615.10;49.90;;;;;;;28.81;39.03;100388.08;106539;1290;70955;31
2022/07/01 12:58:41;;;;;;;757.10;67.60;;;;;;;28.62;39.31;100383.61;106576;1287;72755;-91
2022/07/01 13:02:00;;;;;;;;;;;;;;;;;;;;;
2022/07/01 13:07:31;;;;;;;530.80;50.40;;;;;;;28.57;39.66;100379.17;106198;1288;601051;-90
2022/07/01 13:16:12;;;;;;;84.50;12.20;;;;;;;28.45;40.26;100378.93;106634;1286;72020;-90
2022/07/01 13:21:49;;;;;;;89.60;14.30;;;;;;;28.37;40.25;100374.04;102956;1286;5556209;-90
2022/07/01 13:27:36;;;;;;;78.00;13.60;;;;;;;28.30;40.34;100369.81;107224;1286;66627;-89
2022/07/01 13:31:12;;;;;;;;;;;;;;;;;;;;;
2022/07/01 13:40:30;;;;;;;;;;;;;;;;;;;;;
2022/07/01 13:46:29;;;;;;;;;;;;;;;;;;;;;
2022/07/01 13:52:43;;;;;;;;;;;;;;;;;;;;;
2022/07/01 14:04:16;;;;;;;;;;;;;;;;;;;;;
2022/07/01 14:10:05;;;;;;;;;;;;;;;;;;;;;
2022/07/01 14:15:42;;;;;;;;;;;;;;;;;;;;;
2022/07/01 14:22:04;;;;;;;120.90;15.70;;;;;;;28.12;41.41;100356.88;107166;1283;72881;-90
2022/07/01 14:27:56;;;;;;;104.00;14.90;;;;;;;28.06;41.22;100350.77;107192;1283;67375;-91
2022/07/01 14:33:33;;;;;;;68.00;11.00;;;;;;;28.08;41.19;100346.00;107230;1283;81772;-90
2022/07/01 14:39:10;;;;;;;61.50;11.80;;;;;;;28.19;41.09;100344.64;107299;1283;66462;-90
2022/07/01 14:42:23;;;;;;;67.30;12.40;;;;;;;28.18;41.02;100346.23;107420;1283;68941;-90
2022/07/01 14:48:27;;;;;;;57.60;11.00;;;;;;;28.16;41.08;100358.15;107358;1283;81128;-90
2022/07/01 14:54:17;;;;;;;;;;;;;;;;;;;;;
2022/07/01 15:00:00;;;;;;;;;;;;;;;;;;;;;
2022/07/01 15:05:35;;;;;;;34.30;11.60;;;;;;;28.11;41.05;100366.42;107200;1283;71481;-88
2022/07/01 15:11:25;;;;;;;29.80;9.00;;;;;;;28.13;40.69;100361.10;107066;1283;66848;31
2022/07/01 15:15:18;;;;;;;32.80;9.70;;;;;;;28.10;40.76;100357.65;107279;1283;71807;-89
2022/07/01 15:21:31;;;;;;;;;;;;;;;;;;;;;
2022/07/01 15:30:02;;;;;;;;;;;;;;;;;;;;;
2022/07/01 15:32:55;;;;;;;16.80;8.00;;;;;;;28.07;40.63;100382.29;107285;1283;81700;-88
2022/07/01 15:39:31;;;;;;;16.60;7.20;;;;;;;28.10;40.46;100379.27;107560;1283;245103;-92
2022/07/01 15:48:39;;;;;;;18.80;7.50;;;;;;;28.00;40.62;100382.34;107527;1283;80138;-90
2022/07/01 15:54:34;;;;;;;16.80;8.00;;;;;;;27.99;40.66;100381.41;107769;1281;67326;-91
2022/07/01 16:00:24;;;;;;;;;;;;;;;;;;;;;
2022/07/01 16:05:53;;;;;;;10.00;7.80;;;;;;;27.96;40.79;100366.45;106977;1285;71575;-89
2022/07/01 16:11:38;;;;;;;10.10;7.20;;;;;;;27.95;40.76;100361.10;107085;1285;66515;-90
2022/07/01 16:20:12;;;;;;;;;;;;;;;27.94;40.82;100363.48;107202;1285;71406;-90
2022/07/01 16:26:12;;;;;;;;;;;;;;;;;;;;;
2022/07/01 16:29:01;;;;;;;15.80;8.10;;;;;;;27.98;41.00;100371.35;107413;1283;72611;-89
2022/07/01 16:35:16;;;;;;;14.00;7.00;;;;;;;28.09;41.00;100367.92;107015;1283;71534;-88
2022/07/01 16:45:05;;;;;;;23.20;8.80;;;;;;;28.16;41.02;100369.94;107680;1283;72723;-89
2022/07/01 16:53:52;;;;;;;14.10;8.80;;;;;;;28.22;41.28;100371.46;107222;1283;253210;-93
2022/07/01 16:56:41;;;;;;;12.40;8.30;;;;;;;28.24;41.47;100372.42;107479;1283;68956;-89
2022/07/01 16:59:41;;;;;;;13.00;8.30;;;;;;;28.22;41.54;100375.75;107542;1283;72376;-89
2022/07/01 17:08:32;;;;;;;14.40;8.10;;;;;;;28.26;42.01;100376.87;107149;1283;66422;-89
2022/07/01 17:11:37;;;;;;;13.40;8.00;;;;;;;28.25;42.10;100382.70;107325;1282;66972;-90
2022/07/01 17:20:26;;;;;;;10.90;8.20;;;;;;;28.27;42.59;100390.91;107355;1283;71448;-90
2022/07/01 17:26:27;;;;;;;11.60;7.90;;;;;;;28.25;42.70;100396.43;107491;1281;66915;-89
2022/07/01 17:32:12;;;;;;;10.50;7.70;;;;;;;28.28;42.81;100399.55;107265;1283;81939;-90
2022/07/01 17:38:14;;;;;;;12.70;8.10;;;;;;;28.26;43.06;100400.16;107218;1283;69046;-89
2022/07/01 17:41:18;;;;;;;12.00;8.40;;;;;;;28.27;43.07;100408.85;107549;1283;69025;-91
2022/07/01 17:47:20;;;;;;;;;;;;;;;;;;;;;
2022/07/01 17:52:52;;;;;;;14.30;7.90;;;;;;;28.26;43.46;100407.02;107453;1283;67470;-87
2022/07/01 18:13:54;;;;;;;10.20;8.20;;;;;;;28.24;43.90;100429.06;107113;1283;73302;31
2022/07/01 18:20:15;;;;;;;10.80;8.50;;;;;;;28.23;43.95;100434.86;107184;1283;72665;-90
2022/07/01 18:26:01;;;;;;;9.40;8.40;;;;;;;28.24;44.16;100435.89;107499;1283;66866;-88
2022/07/01 18:31:45;;;;;;;11.10;8.40;;;;;;;28.23;44.18;100440.20;107029;1284;256177;-92
2022/07/01 18:37:46;;;;;;;8.90;7.90;;;;;;;28.22;44.59;100455.56;107166;1283;67505;-89
2022/07/01 18:43:34;;;;;;;13.20;8.30;;;;;;;28.19;44.89;100467.44;106757;1284;73778;31
2022/07/01 18:49:47;;;;;;;9.50;8.00;;;;;;;28.16;44.87;100478.81;107037;1284;72706;31
2022/07/01 18:52:58;;;;;;;11.40;8.00;;;;;;;28.16;45.01;100489.20;106725;1284;259648;-93
2022/07/01 18:59:02;;;;;;;9.00;8.10;;;;;;;28.21;44.89;100510.84;107449;1283;73610;-89
2022/07/01 19:04:59;;;;;;;9.10;8.20;;;;;;;28.20;44.92;100509.84;107260;1280;248241;-91
2022/07/01 19:08:17;;;;;;;;;;;;;;;28.21;45.07;100514.06;106896;1284;255553;-93
2022/07/01 19:14:44;;;;;;;;;;;;;;;;;;;;;
2022/07/01 19:20:11;;;;;;;10.10;8.80;;;;;;;28.20;45.14;100515.32;106970;1282;72287;-90
2022/07/01 19:25:47;;;;;;;11.40;8.20;;;;;;;28.19;45.11;100516.78;107206;1283;67539;-89
2022/07/01 19:31:27;;;;;;;10.30;9.00;;;;;;;28.20;45.14;100518.58;107067;1283;81948;31
2022/07/01 19:34:57;;;;;;;10.70;8.80;;;;;;;28.20;45.18;100519.03;107264;1283;72176;-89
2022/07/01 19:43:56;;;;;;;;;;;;;;;;;;;;;
2022/07/01 19:49:24;;;;;;;10.20;8.70;;;;;;;28.19;45.41;100519.70;107126;1283;73669;31
2022/07/01 19:55:19;;;;;;;12.50;9.20;;;;;;;28.21;45.35;100526.58;107096;1283;251906;-91
2022/07/01 20:01:20;;;;;;;10.40;8.50;;;;;;;28.18;45.53;100527.90;107105;1283;82419;31
2022/07/01 20:07:24;;;;;;;10.80;9.70;;;;;;;28.20;45.47;100525.78;106949;1284;67066;31
2022/07/01 20:13:49;;;;;;;11.80;9.00;;;;;;;28.18;45.48;100529.98;107028;1283;252648;-93
2022/07/01 20:20:14;;;;;;;13.50;9.50;;;;;;;28.17;45.57;100525.11;107446;1281;72462;-89
2022/07/01 20:26:10;;;;;;;11.20;9.20;;;;;;;28.15;45.65;100521.79;107078;1281;257061;-93
2022/07/01 20:29:17;;;;;;;13.90;9.70;;;;;;;28.16;45.66;100526.16;106744;1283;271006;-93
2022/07/01 20:32:29;;;;;;;14.00;9.70;;;;;;;28.18;45.65;100528.11;107084;1281;250932;-93
2022/07/01 20:35:36;;;;;;;10.50;8.60;;;;;;;28.16;45.71;100528.55;107405;1282;72755;-89
2022/07/01 20:38:41;;;;;;;10.10;8.90;;;;;;;28.16;45.70;100531.39;107033;1281;259871;-89
2022/07/01 20:44:39;;;;;;;11.10;9.30;;;;;;;28.18;45.82;100532.76;107420;1281;74659;-90
2022/07/01 20:47:43;;;;;;;12.60;8.70;;;;;;;28.16;45.95;100534.73;107093;1281;259189;-89
2022/07/01 20:53:46;;;;;;;10.20;8.80;;;;;;;28.17;46.14;100533.92;107064;1281;265633;-86
2022/07/01 21:00:11;;;;;;;11.30;8.60;;;;;;;28.16;45.97;100536.62;107463;1281;73436;-89
2022/07/01 21:09:25;;;;;;;12.60;8.60;;;;;;;28.16;46.02;100537.34;106938;1281;69080;-89
2022/07/01 21:14:59;;;;;;;11.70;9.00;;;;;;;28.15;46.10;100538.25;107490;1281;73847;-89
2022/07/01 21:21:29;;;;;;;10.30;8.90;;;;;;;28.16;46.06;100542.46;107392;1281;72169;31
2022/07/01 21:24:32;;;;;;;10.50;9.30;;;;;;;28.13;46.11;100540.52;106930;1281;69228;-89
2022/07/01 21:30:37;;;;;;;;;;;;;;;;;;;;;
2022/07/01 21:36:06;;;;;;;11.60;9.20;;;;;;;28.07;46.28;100540.83;106652;1283;257432;-93
2022/07/01 21:41:58;;;;;;;;;;;;;;;;;;;;;
2022/07/01 21:47:55;;;;;;;9.40;8.40;;;;;;;28.03;46.35;100543.14;106576;1283;81729;31
2022/07/01 21:51:10;;;;;;;;;;;;;;;;;;;;;
2022/07/01 21:56:45;;;;;;;10.00;8.50;;;;;;;28.07;46.63;100547.85;106575;1284;68316;-90
2022/07/01 21:59:56;;;;;;;;;;;;;;;;;;;;;
2022/07/01 22:08:33;;;;;;;9.60;8.10;;;;;;;28.07;46.57;100553.27;106529;1283;69167;31
2022/07/01 22:11:45;;;;;;;9.90;8.10;;;;;;;28.10;46.71;100554.08;106485;1282;69129;31
2022/07/01 22:17:42;;;;;;;11.20;8.10;;;;;;;28.07;46.70;100558.20;105922;1284;81182;-89
2022/07/01 22:23:44;;;;;;;12.00;8.60;;;;;;;28.10;46.62;100562.35;106329;1283;267500;-92
2022/07/01 22:29:53;;;;;;;10.30;7.70;;;;;;;28.08;46.76;100568.52;107074;1283;274780;-93
2022/07/01 22:36:10;;;;;;;;;;;;;;;;;;;;;
2022/07/01 22:41:36;;;;;;;8.70;7.80;;;;;;;28.07;46.80;100580.80;106383;1283;258362;-92
2022/07/01 22:47:39;;;;;;;14.30;8.70;;;;;;;28.10;46.91;100590.81;106306;1281;81728;31
2022/07/01 22:53:35;;;;;;;8.70;7.90;;;;;;;28.06;46.96;100596.09;106378;1283;66354;-89
2022/07/01 22:56:35;;;;;;;13.40;8.70;;;;;;;28.09;47.07;100600.48;106674;1282;69015;-90
2022/07/01 23:02:26;;;;;;;13.50;8.90;;;;;;;28.07;47.11;100599.33;106199;1283;80602;-89
2022/07/01 23:08:06;;;;;;;;;;;;;;;;;;;;;
2022/07/01 23:19:53;;;;;;;12.00;9.40;;;;;;;28.08;47.39;100596.30;105890;1283;72026;-89
2022/07/01 23:25:24;;;;;;;14.90;8.30;;;;;;;28.07;47.26;100599.05;107453;1283;272733;-90
2022/07/01 23:31:08;;;;;;;12.80;8.90;;;;;;;28.09;47.31;100598.91;106754;1283;273343;-93
2022/07/01 23:37:25;;;;;;;;;;;;;;;;;;;;;
2022/07/01 23:45:55;;;;;;;14.70;8.60;;;;;;;28.09;47.48;100599.80;106714;1283;256005;-93
2022/07/01 23:48:58;;;;;;;11.30;8.40;;;;;;;28.06;47.44;100599.84;107342;1282;70897;-89
2022/07/01 23:54:47;;;;;;;10.50;8.40;;;;;;;28.09;47.46;100601.61;106545;1283;254340;-93
